Terminal Aerodrome Forecast
Issued by NWS

Home | Current Version | Previous Version | Text Only | Print | Product List | Glossary Off
Versions: 1 2 3 4 5 6 7 8 9 10 11 12 13 14 15

000
FTUS43 KGRB 031721
TAFMTW
TAF
KMTW 031721Z 0318/0418 20008KT P6SM FEW050 BKN250
     FM040100 19006KT P6SM SCT040 BKN120
     FM040500 23005KT P6SM VCSH SCT040 BKN100
     FM040800 26003KT P6SM SCT040 SCT120
     FM041300 01005KT P6SM SCT040=

USA.gov is the U.S. government's official web portal to all federal, state and local government web resources and services.